createdAt,value
2023-04-10T00:00:24.516Z,100431.89
2023-04-10T00:01:27.948Z,100438.08
2023-04-10T00:02:30.164Z,100435.41
2023-04-10T00:03:33.103Z,100436.27
2023-04-10T00:04:36.653Z,100434.45
2023-04-10T00:05:38.929Z,100438.94
2023-04-10T00:06:41.894Z,100437.97
2023-04-10T00:07:43.989Z,100436.13
2023-04-10T00:08:46.049Z,100434.45
2023-04-10T00:09:48.224Z,100440.64
2023-04-10T00:10:50.609Z,100438.80
2023-04-10T00:11:52.674Z,100435.17
2023-04-10T00:12:55.444Z,100438.70
2023-04-10T00:13:57.515Z,100435.17
2023-04-10T00:14:59.593Z,100435.89
2023-04-10T00:16:02.243Z,100442.22
2023-04-10T00:17:04.432Z,100443.17
2023-04-10T00:18:06.531Z,100439.55
2023-04-10T00:19:08.855Z,100443.08
2023-04-10T00:20:12.042Z,100438.70
2023-04-10T00:21:14.101Z,100440.41
2023-04-10T00:22:16.512Z,100441.36
2023-04-10T00:23:18.595Z,100434.22
2023-04-10T00:24:20.643Z,100439.66
2023-04-10T00:25:22.824Z,100444.03
2023-04-10T00:26:25.658Z,100443.17
2023-04-10T00:27:28.122Z,100444.03
2023-04-10T00:28:30.309Z,100436.03
2023-04-10T00:29:32.580Z,100444.03
2023-04-10T00:30:34.753Z,100431.65
2023-04-10T00:31:37.511Z,100430.80
2023-04-10T00:32:39.798Z,100436.13
2023-04-10T00:33:42.077Z,100432.64
2023-04-10T00:34:44.548Z,100431.78
2023-04-10T00:35:46.666Z,100429.22
2023-04-10T00:36:49.818Z,100430.93
2023-04-10T00:37:52.491Z,100434.31
2023-04-10T00:38:54.756Z,100431.55
2023-04-10T00:39:57.460Z,100430.55
2023-04-10T00:40:59.727Z,100439.31
2023-04-10T00:42:01.918Z,100437.47
2023-04-10T00:43:04.496Z,100433.84
2023-04-10T00:44:06.703Z,100432.98
2023-04-10T00:45:09.746Z,100433.98
2023-04-10T00:46:13.224Z,100437.47
2023-04-10T00:47:16.102Z,100433.98
2023-04-10T00:48:18.290Z,100433.13
2023-04-10T00:49:20.460Z,100436.64
2023-04-10T00:50:23.404Z,100434.80
2023-04-10T00:51:25.762Z,100432.03
2023-04-10T00:52:27.856Z,100431.17
2023-04-10T00:53:30.534Z,100437.47
2023-04-10T00:54:33.189Z,100435.66
2023-04-10T00:55:35.476Z,100432.98
2023-04-10T00:56:38.154Z,100432.98
2023-04-10T00:57:43.484Z,100433.73
2023-04-10T00:58:47.113Z,100437.23
2023-04-10T00:59:49.233Z,100439.90
2023-04-10T01:00:51.592Z,100430.22
2023-04-10T01:01:54.175Z,100428.50
2023-04-10T01:02:56.711Z,100431.31
2023-04-10T01:04:00.173Z,100433.13
2023-04-10T01:05:03.303Z,100434.08
2023-04-10T01:06:27.757Z,100433.23
2023-04-10T01:08:00.680Z,100434.08
2023-04-10T01:09:16.125Z,100430.45
2023-04-10T01:11:53.821Z,100424.27
2023-04-10T01:14:48.891Z,100425.22
2023-04-10T01:16:11.568Z,100429.84
2023-04-10T01:17:17.820Z,100428.64
2023-04-10T01:18:38.978Z,100424.74
2023-04-10T01:21:15.868Z,100429.70
2023-04-10T01:22:18.917Z,100425.36
2023-04-10T01:23:47.884Z,100423.55
2023-04-10T01:26:52.695Z,100425.84
2023-04-10T01:28:22.145Z,100433.37
2023-04-10T01:29:26.279Z,100432.27
2023-04-10T01:30:32.490Z,100432.13
2023-04-10T01:31:44.466Z,100433.37
2023-04-10T01:32:48.440Z,100422.69
2023-04-10T01:33:56.072Z,100422.80
2023-04-10T01:35:00.800Z,100428.13
2023-04-10T01:36:05.257Z,100419.41
2023-04-10T01:38:23.321Z,100418.20
2023-04-10T01:39:26.866Z,100421.22
2023-04-10T01:40:31.706Z,100432.74
2023-04-10T01:41:34.979Z,100427.30
2023-04-10T01:42:46.783Z,100420.39
2023-04-10T01:43:52.518Z,100418.81
2023-04-10T01:44:55.985Z,100429.59
2023-04-10T01:45:59.119Z,100427.06
2023-04-10T01:47:02.396Z,100432.50
2023-04-10T01:48:05.826Z,100423.77
2023-04-10T01:49:08.975Z,100428.39
2023-04-10T01:50:14.345Z,100430.20
2023-04-10T01:51:17.434Z,100424.97
2023-04-10T01:52:20.768Z,100428.48
2023-04-10T01:53:25.112Z,100424.24
2023-04-10T01:54:28.193Z,100423.29
2023-04-10T01:55:31.817Z,100430.43
2023-04-10T01:56:36.019Z,100432.97
2023-04-10T01:57:38.299Z,100433.95
2023-04-10T01:58:40.550Z,100433.82
2023-04-10T01:59:43.621Z,100432.14
2023-04-10T02:00:46.272Z,100433.10
2023-04-10T02:01:57.708Z,100428.72
2023-04-10T02:03:00.896Z,100428.72
2023-04-10T02:04:04.958Z,100432.25
2023-04-10T02:05:09.178Z,100440.14
2023-04-10T02:07:53.109Z,100428.02
2023-04-10T02:08:58.893Z,100437.81
2023-04-10T02:11:32.412Z,100436.25
2023-04-10T02:12:38.216Z,100433.70
2023-04-10T02:13:41.138Z,100440.84
2023-04-10T02:14:46.862Z,100433.70
2023-04-10T02:15:50.254Z,100438.18
2023-04-10T02:16:55.601Z,100431.99
2023-04-10T02:17:59.524Z,100429.33
2023-04-10T02:19:03.084Z,100432.09
2023-04-10T02:20:07.329Z,100440.91
2023-04-10T02:21:10.051Z,100429.42
2023-04-10T02:22:12.621Z,100438.25
2023-04-10T02:23:17.120Z,100434.66
2023-04-10T02:24:20.459Z,100432.84
2023-04-10T02:25:22.833Z,100431.99
2023-04-10T02:26:25.200Z,100436.38
2023-04-10T02:27:29.672Z,100435.38
2023-04-10T02:28:34.820Z,100439.77
2023-04-10T02:29:37.035Z,100438.91
2023-04-10T02:30:41.061Z,100437.95
2023-04-10T02:31:45.809Z,100437.33
2023-04-10T02:32:50.071Z,100436.57
2023-04-10T02:33:53.799Z,100440.09
2023-04-10T02:34:56.500Z,100447.99
2023-04-10T02:36:00.519Z,100440.72
2023-04-10T02:37:03.993Z,100432.48
2023-04-10T02:38:06.266Z,100444.72
2023-04-10T02:39:10.280Z,100440.97
2023-04-10T02:40:14.881Z,100438.20
2023-04-10T02:41:18.999Z,100441.95
2023-04-10T02:42:21.551Z,100441.23
2023-04-10T02:43:24.566Z,100437.71
2023-04-10T02:44:26.731Z,100448.25
2023-04-10T02:45:28.797Z,100441.10
2023-04-10T02:46:32.003Z,100441.83
2023-04-10T02:47:34.327Z,100443.53
2023-04-10T02:48:36.558Z,100447.88
2023-04-10T02:49:38.737Z,100455.65
2023-04-10T02:50:42.848Z,100447.64
2023-04-10T02:51:45.013Z,100448.40
2023-04-10T02:52:47.368Z,100448.27
2023-04-10T02:53:49.537Z,100447.31
2023-04-10T02:54:53.377Z,100445.49
2023-04-10T02:55:55.460Z,100444.50
2023-04-10T02:56:58.630Z,100446.94
2023-04-10T02:58:00.855Z,100445.98
2023-04-10T02:59:03.120Z,100452.14
2023-04-10T03:00:08.334Z,100448.52
2023-04-10T03:02:34.619Z,100455.19
2023-04-10T03:03:38.823Z,100451.33
2023-04-10T03:04:41.832Z,100444.66
2023-04-10T03:05:46.884Z,100446.23
2023-04-10T03:06:49.946Z,100448.66
2023-04-10T03:07:52.340Z,100445.86
2023-04-10T03:08:54.513Z,100447.67
2023-04-10T03:09:56.690Z,100445.98
2023-04-10T03:10:59.181Z,100444.38
2023-04-10T03:12:01.329Z,100446.33
2023-04-10T03:13:03.704Z,100449.99
2023-04-10T03:14:07.652Z,100447.56
2023-04-10T03:15:10.828Z,100456.53
2023-04-10T03:16:13.230Z,100455.91
2023-04-10T03:17:15.522Z,100452.41
2023-04-10T03:18:19.243Z,100453.38
2023-04-10T03:19:22.517Z,100450.09
2023-04-10T03:20:25.488Z,100457.37
2023-04-10T03:21:27.674Z,100454.70
2023-04-10T03:22:30.466Z,100456.52
2023-04-10T03:23:33.674Z,100458.33
2023-04-10T03:24:36.830Z,100447.79
2023-04-10T03:25:39.190Z,100461.00
2023-04-10T03:26:42.109Z,100456.66
2023-04-10T03:27:57.558Z,100457.61
2023-04-10T03:29:00.250Z,100458.56
2023-04-10T03:30:03.093Z,100451.41
2023-04-10T03:31:07.252Z,100459.42
2023-04-10T03:32:11.654Z,100463.91
2023-04-10T03:33:13.903Z,100457.84
2023-04-10T03:34:16.274Z,100460.64
2023-04-10T03:35:20.863Z,100458.08
2023-04-10T03:36:23.277Z,100457.23
2023-04-10T03:37:25.467Z,100454.69
2023-04-10T03:38:27.508Z,100460.88
2023-04-10T03:39:30.092Z,100458.45
2023-04-10T03:40:32.700Z,100454.92
2023-04-10T03:41:35.754Z,100454.06
2023-04-10T03:42:38.573Z,100458.55
2023-04-10T03:43:41.312Z,100461.22
2023-04-10T03:44:43.585Z,100455.06
2023-04-10T03:45:46.312Z,100457.95
2023-04-10T03:46:50.443Z,100456.25
2023-04-10T03:47:52.885Z,100459.05
2023-04-10T03:48:57.683Z,100455.53
2023-04-10T03:50:00.144Z,100457.34
2023-04-10T03:51:02.837Z,100459.05
2023-04-10T03:52:05.159Z,100458.19
2023-04-10T03:53:07.773Z,100457.34
2023-04-10T03:54:10.996Z,100460.01
2023-04-10T03:55:13.261Z,100463.53
2023-04-10T03:56:16.236Z,100460.01
2023-04-10T03:57:19.774Z,100460.96
2023-04-10T03:58:22.994Z,100460.96
2023-04-10T03:59:37.709Z,100466.30
2023-04-10T04:00:31.877Z,100458.42
2023-04-10T04:01:38.851Z,100459.38
2023-04-10T04:02:43.147Z,100461.33
2023-04-10T04:03:46.846Z,100463.99
2023-04-10T04:05:08.120Z,100455.99
2023-04-10T04:06:28.854Z,100463.04
2023-04-10T04:07:41.471Z,100468.38
2023-04-10T04:09:56.472Z,100467.77
2023-04-10T04:12:07.668Z,100477.98
2023-04-10T04:18:02.058Z,100483.45
2023-04-10T04:19:11.987Z,100480.06
2023-04-10T04:20:17.797Z,100481.02
2023-04-10T04:21:24.617Z,100481.15
2023-04-10T04:22:28.625Z,100480.16
2023-04-10T04:23:36.722Z,100486.48
2023-04-10T04:24:40.720Z,100480.16
2023-04-10T04:25:44.768Z,100485.49
2023-04-10T04:26:57.911Z,100480.06
2023-04-10T04:28:05.074Z,100482.59
2023-04-10T04:29:11.843Z,100483.45
2023-04-10T04:30:16.455Z,100481.64
2023-04-10T04:31:21.704Z,100489.64
2023-04-10T04:32:42.748Z,100482.59
2023-04-10T04:34:03.381Z,100487.83
2023-04-10T04:36:32.814Z,100480.78
2023-04-10T04:37:42.484Z,100485.98
2023-04-10T04:39:00.691Z,100484.31
2023-04-10T04:40:18.491Z,100483.59
2023-04-10T04:42:33.713Z,100494.38
2023-04-10T04:44:55.028Z,100487.57
2023-04-10T04:45:59.592Z,100479.04
2023-04-10T04:47:20.739Z,100486.94
2023-04-10T04:48:27.680Z,100492.27
2023-04-10T04:49:37.515Z,100487.80
2023-04-10T04:50:45.646Z,100488.62
2023-04-10T04:51:55.205Z,100486.81
2023-04-10T04:53:11.515Z,100493.12
2023-04-10T04:55:28.653Z,100491.69
2023-04-10T04:56:41.809Z,100494.66
2023-04-10T04:57:48.870Z,100487.40
2023-04-10T04:58:56.089Z,100495.39
2023-04-10T05:00:04.736Z,100498.78
2023-04-10T05:01:25.400Z,100502.30
2023-04-10T05:02:29.567Z,100498.55
2023-04-10T05:03:45.959Z,100499.55
2023-04-10T05:04:51.385Z,100497.70
2023-04-10T05:06:12.541Z,100504.02
2023-04-10T05:07:22.245Z,100506.78
2023-04-10T05:08:29.491Z,100497.83
2023-04-10T05:09:39.709Z,100499.77
2023-04-10T05:11:03.561Z,100509.45
2023-04-10T05:12:14.010Z,100503.16
2023-04-10T05:13:21.309Z,100498.78
2023-04-10T05:14:35.037Z,100512.24
2023-04-10T05:15:39.214Z,100503.30
2023-04-10T05:16:48.841Z,100518.30
2023-04-10T05:17:56.095Z,100514.78
2023-04-10T05:19:09.299Z,100514.69
2023-04-10T05:20:33.884Z,100513.70
2023-04-10T05:23:01.802Z,100517.39
2023-04-10T05:24:19.202Z,100515.00
2023-04-10T05:25:39.708Z,100519.38
2023-04-10T05:26:55.790Z,100510.30
2023-04-10T05:28:03.719Z,100513.70
2023-04-10T05:29:16.822Z,100522.55
2023-04-10T05:31:47.425Z,100509.16
2023-04-10T05:32:54.414Z,100515.53
2023-04-10T05:33:57.684Z,100513.59
2023-04-10T05:35:03.943Z,100512.52
2023-04-10T05:36:20.311Z,100515.05
2023-04-10T05:37:41.035Z,100511.20
2023-04-10T05:39:57.686Z,100513.48
2023-04-10T05:41:02.975Z,100520.66
2023-04-10T05:42:19.180Z,100509.03
2023-04-10T05:43:27.437Z,100511.47
2023-04-10T05:44:58.533Z,100511.23
2023-04-10T05:46:18.035Z,100514.44
2023-04-10T05:47:29.409Z,100515.78
2023-04-10T05:48:35.208Z,100520.16
2023-04-10T05:49:44.524Z,100519.08
2023-04-10T05:52:19.216Z,100513.27
2023-04-10T05:54:44.715Z,100515.84
2023-04-10T05:57:00.314Z,100506.84
2023-04-10T05:58:21.289Z,100530.11
2023-04-10T05:59:35.820Z,100524.54
2023-04-10T06:00:54.038Z,100522.86
2023-04-10T06:03:13.672Z,100512.45
2023-04-10T06:04:18.814Z,100515.42
2023-04-10T06:05:29.558Z,100518.84
2023-04-10T06:06:35.851Z,100524.05
2023-04-10T06:07:44.937Z,100522.11
2023-04-10T06:08:51.303Z,100517.52
2023-04-10T06:09:59.037Z,100532.44
2023-04-10T06:11:05.125Z,100518.25
2023-04-10T06:12:09.245Z,100520.78
2023-04-10T06:13:14.970Z,100515.22
2023-04-10T06:14:18.718Z,100523.22
2023-04-10T06:15:24.759Z,100530.13
2023-04-10T06:16:28.687Z,100531.95
2023-04-10T06:17:31.040Z,100532.70
2023-04-10T06:18:35.528Z,100530.98
2023-04-10T06:26:08.392Z,100524.95
2023-04-10T06:27:19.960Z,100531.97
2023-04-10T06:28:22.593Z,100531.86
2023-04-10T06:29:27.208Z,100528.34
2023-04-10T06:31:39.440Z,100525.79
2023-04-10T06:32:44.098Z,100538.53
2023-04-10T06:33:49.466Z,100531.38
2023-04-10T06:34:56.629Z,100531.38
2023-04-10T06:35:59.255Z,100529.53
2023-04-10T06:37:01.757Z,100533.06
2023-04-10T06:38:04.019Z,100521.66
2023-04-10T06:39:08.346Z,100529.66
2023-04-10T06:40:13.733Z,100544.82
2023-04-10T06:41:17.540Z,100539.48
2023-04-10T06:42:20.625Z,100534.28
2023-04-10T06:43:30.371Z,100545.91
2023-04-10T06:44:32.541Z,100539.62
2023-04-10T06:45:34.595Z,100538.86
2023-04-10T06:46:37.222Z,100543.38
2023-04-10T06:47:39.880Z,100539.95
2023-04-10T06:48:42.934Z,100540.94
2023-04-10T06:49:46.211Z,100532.08
2023-04-10T06:50:48.439Z,100541.89
2023-04-10T06:51:50.499Z,100541.89
2023-04-10T06:52:52.702Z,100537.78
2023-04-10T06:53:54.750Z,100536.06
2023-04-10T06:54:57.578Z,100535.21
2023-04-10T06:56:01.582Z,100541.63
2023-04-10T06:57:03.701Z,100536.43
2023-04-10T06:58:05.880Z,100537.38
2023-04-10T06:59:08.168Z,100545.52
2023-04-10T07:00:13.243Z,100547.33
2023-04-10T07:01:15.499Z,100548.42
2023-04-10T07:02:17.518Z,100540.52
2023-04-10T07:03:19.652Z,100535.31
2023-04-10T07:04:21.748Z,100540.64
2023-04-10T07:05:23.961Z,100539.79
2023-04-10T07:06:26.130Z,100548.65
2023-04-10T07:07:28.309Z,100548.65
2023-04-10T07:08:30.601Z,100559.19
2023-04-10T07:09:33.112Z,100542.45
2023-04-10T07:10:35.653Z,100552.41
2023-04-10T07:11:37.631Z,100553.35
2023-04-10T07:12:39.722Z,100544.63
2023-04-10T07:13:43.138Z,100545.48
2023-04-10T07:14:47.941Z,100558.82
2023-04-10T07:15:54.058Z,100539.52
2023-04-10T07:16:59.018Z,100558.38
2023-04-10T07:18:03.034Z,100543.34
2023-04-10T07:19:09.855Z,100554.99
2023-04-10T07:20:13.805Z,100555.84
2023-04-10T07:21:16.494Z,100559.34
2023-04-10T07:22:23.351Z,100557.75
2023-04-10T07:23:34.268Z,100551.56
2023-04-10T07:24:36.995Z,100547.31
2023-04-10T07:25:42.717Z,100559.70
2023-04-10T07:26:46.487Z,100571.22
2023-04-10T07:27:48.745Z,100573.76
2023-04-10T07:29:18.203Z,100560.42
2023-04-10T07:30:22.905Z,100561.28
2023-04-10T07:31:25.750Z,100578.13
2023-04-10T07:32:34.112Z,100573.89
2023-04-10T07:33:37.959Z,100568.65
2023-04-10T07:34:42.188Z,100567.83
2023-04-10T07:35:48.666Z,100560.78
2023-04-10T07:36:51.597Z,100564.53
2023-04-10T07:37:54.528Z,100576.28
2023-04-10T07:38:58.866Z,100566.56
2023-04-10T07:40:02.543Z,100569.36
2023-04-10T07:41:05.425Z,100571.90
2023-04-10T07:42:10.597Z,100565.70
2023-04-10T07:43:13.064Z,100578.09
2023-04-10T07:44:15.254Z,100576.28
2023-04-10T07:45:17.473Z,100561.36
2023-04-10T07:46:21.615Z,100568.28
2023-04-10T07:47:25.613Z,100582.34
2023-04-10T07:48:31.275Z,100584.14
2023-04-10T07:49:35.284Z,100580.52
2023-04-10T07:50:39.414Z,100590.34
2023-04-10T07:51:42.966Z,100590.23
2023-04-10T07:52:49.726Z,100577.86
2023-04-10T07:53:52.172Z,100585.73
2023-04-10T07:54:56.333Z,100578.72
2023-04-10T07:56:01.880Z,100588.52
2023-04-10T07:57:05.818Z,100578.72
2023-04-10T07:58:10.200Z,100590.23
2023-04-10T07:59:14.317Z,100578.72
2023-04-10T08:00:18.610Z,100577.95
2023-04-10T08:01:21.913Z,100585.00
2023-04-10T08:02:26.526Z,100589.38
2023-04-10T08:04:46.372Z,100594.45
2023-04-10T08:05:50.862Z,100579.31
2023-04-10T08:06:55.452Z,100585.28
2023-04-10T08:07:59.726Z,100578.00
2023-04-10T08:09:02.383Z,100572.58
2023-04-10T08:10:09.779Z,100588.38
2023-04-10T08:11:29.791Z,100586.31
2023-04-10T08:12:35.528Z,100579.07
2023-04-10T08:13:37.678Z,100577.98
2023-04-10T08:14:45.968Z,100578.71
2023-04-10T08:15:51.261Z,100575.91
2023-04-10T08:16:54.758Z,100584.77
2023-04-10T08:19:03.352Z,100575.81
2023-04-10T08:22:26.371Z,100579.34
2023-04-10T08:24:33.422Z,100582.11
2023-04-10T08:25:37.547Z,100587.44
2023-04-10T08:26:46.276Z,100588.20
2023-04-10T08:29:01.334Z,100585.27
2023-04-10T08:30:07.578Z,100574.50
2023-04-10T08:31:12.340Z,100576.81
2023-04-10T08:33:32.126Z,100596.51
2023-04-10T08:34:34.962Z,100586.59
2023-04-10T08:35:41.581Z,100592.81
2023-04-10T08:36:43.854Z,100584.59
2023-04-10T08:37:53.683Z,100577.50
2023-04-10T08:38:55.406Z,100584.64
2023-04-10T08:39:57.527Z,100569.67
2023-04-10T08:41:01.603Z,100580.72
2023-04-10T08:42:06.229Z,100578.05
2023-04-10T08:43:11.634Z,100570.14
2023-04-10T08:44:16.676Z,100579.16
2023-04-10T08:45:23.080Z,100576.73
2023-04-10T08:46:26.806Z,100579.66
2023-04-10T08:47:36.584Z,100584.39
2023-04-10T08:50:12.559Z,100571.24
2023-04-10T08:51:20.064Z,100584.17
2023-04-10T08:52:26.776Z,100584.17
2023-04-10T08:53:32.480Z,100584.31
2023-04-10T08:54:45.830Z,100591.48
2023-04-10T08:55:52.766Z,100588.09
2023-04-10T08:56:56.095Z,100577.74
2023-04-10T08:58:01.489Z,100585.05
2023-04-10T08:59:08.154Z,100581.66
2023-04-10T09:01:31.837Z,100589.05
2023-04-10T09:02:43.635Z,100589.31
2023-04-10T09:03:51.709Z,100588.59
2023-04-10T09:04:55.333Z,100580.71
2023-04-10T09:06:04.840Z,100586.05
2023-04-10T09:07:11.540Z,100585.06
2023-04-10T09:08:16.994Z,100590.41
2023-04-10T09:09:19.230Z,100576.94
2023-04-10T09:10:22.139Z,100598.32
2023-04-10T09:11:24.361Z,100586.64
2023-04-10T09:13:39.278Z,100584.56
2023-04-10T09:14:44.240Z,100593.45
2023-04-10T09:15:58.611Z,100582.52
2023-04-10T09:17:23.042Z,100573.64
2023-04-10T09:18:47.185Z,100574.49
2023-04-10T09:19:56.529Z,100569.97
2023-04-10T09:21:13.534Z,100577.17
2023-04-10T09:23:32.165Z,100585.52
2023-04-10T09:24:40.730Z,100594.80
2023-04-10T09:25:44.754Z,100588.59
2023-04-10T09:26:48.692Z,100590.55
2023-04-10T09:29:09.483Z,100576.55
2023-04-10T09:30:20.019Z,100590.07
2023-04-10T09:31:37.721Z,100576.70
2023-04-10T09:32:44.050Z,100592.74
2023-04-10T09:33:46.419Z,100587.40
2023-04-10T09:34:53.961Z,100589.31
2023-04-10T09:35:59.666Z,100582.27
2023-04-10T09:37:02.016Z,100585.83
2023-04-10T09:38:17.989Z,100597.34
2023-04-10T09:39:20.383Z,100592.84
2023-04-10T09:40:24.161Z,100590.28
2023-04-10T09:41:30.873Z,100586.65
2023-04-10T09:42:40.195Z,100585.04
2023-04-10T09:43:45.972Z,100587.61
2023-04-10T09:44:52.400Z,100596.37
2023-04-10T09:47:36.949Z,100586.28
2023-04-10T09:48:43.504Z,100586.55
2023-04-10T09:49:52.943Z,100586.16
2023-04-10T09:51:05.868Z,100587.73
2023-04-10T09:52:28.517Z,100589.45
2023-04-10T09:53:30.795Z,100585.78
2023-04-10T09:54:40.796Z,100591.98
2023-04-10T09:55:47.832Z,100579.72
2023-04-10T09:56:53.516Z,100586.88
2023-04-10T09:58:00.678Z,100581.78
2023-04-10T09:59:07.165Z,100592.47
2023-04-10T10:00:13.733Z,100594.18
2023-04-10T10:01:16.640Z,100596.00
2023-04-10T10:02:20.655Z,100592.61
2023-04-10T10:03:24.222Z,100595.28
2023-04-10T10:04:28.283Z,100594.42
2023-04-10T10:05:30.530Z,100594.42
2023-04-10T10:06:38.576Z,100588.12
2023-04-10T10:07:41.988Z,100593.46
2023-04-10T10:08:46.275Z,100600.48
2023-04-10T10:09:51.435Z,100593.46
2023-04-10T10:10:55.721Z,100578.28
2023-04-10T10:11:59.020Z,100581.78
2023-04-10T10:13:02.772Z,100587.02
2023-04-10T10:14:12.063Z,100590.55
2023-04-10T10:15:18.223Z,100588.73
2023-04-10T10:16:30.778Z,100581.53
2023-04-10T10:17:44.913Z,100578.62
2023-04-10T10:19:08.730Z,100584.58
2023-04-10T10:20:17.839Z,100584.19
2023-04-10T10:21:20.798Z,100579.45
2023-04-10T10:22:25.172Z,100586.13
2023-04-10T10:23:28.320Z,100580.53
2023-04-10T10:24:33.985Z,100580.29
2023-04-10T10:25:38.793Z,100581.72
2023-04-10T10:26:45.057Z,100578.80
2023-04-10T10:27:49.678Z,100582.19
2023-04-10T10:28:56.087Z,100579.41
2023-04-10T10:30:02.970Z,100580.26
2023-04-10T10:31:05.755Z,100583.65
2023-04-10T10:32:08.061Z,100580.97
2023-04-10T10:33:11.713Z,100571.98
2023-04-10T10:34:16.101Z,100590.42
2023-04-10T10:35:18.935Z,100564.42
2023-04-10T10:36:22.165Z,100575.13
2023-04-10T10:37:26.153Z,100571.45
2023-04-10T10:38:28.754Z,100580.23
2023-04-10T10:40:07.972Z,100564.17
2023-04-10T10:41:16.564Z,100562.22
2023-04-10T10:42:48.218Z,100567.17
2023-04-10T10:44:02.777Z,100567.77
2023-04-10T10:45:15.577Z,100568.38
2023-04-10T10:46:24.864Z,100563.73
2023-04-10T10:47:29.916Z,100561.78
2023-04-10T10:48:32.160Z,100571.38
2023-04-10T10:51:04.169Z,100552.73
2023-04-10T10:53:44.924Z,100563.30
2023-04-10T10:54:58.923Z,100556.31
2023-04-10T10:55:51.646Z,100560.67
2023-04-10T10:56:54.957Z,100561.27
2023-04-10T10:58:02.747Z,100562.84
2023-04-10T10:59:05.320Z,100557.48
2023-04-10T11:00:10.014Z,100554.66
2023-04-10T11:01:12.234Z,100561.88
2023-04-10T11:02:16.288Z,100561.12
2023-04-10T11:03:22.343Z,100568.19
2023-04-10T11:06:06.588Z,100563.49
2023-04-10T11:08:10.733Z,100566.22
2023-04-10T11:11:07.629Z,100555.20
2023-04-10T11:12:11.333Z,100558.09
2023-04-10T11:13:22.419Z,100553.30
2023-04-10T11:14:24.656Z,100567.28
2023-04-10T11:15:26.826Z,100561.81
2023-04-10T11:16:36.163Z,100558.14
2023-04-10T11:17:52.991Z,100556.20
2023-04-10T11:19:13.146Z,100563.13
2023-04-10T11:20:08.763Z,100560.30
2023-04-10T11:21:16.292Z,100558.34
2023-04-10T11:22:18.801Z,100557.23
2023-04-10T11:23:21.249Z,100556.11
2023-04-10T11:24:23.927Z,100558.53
2023-04-10T11:25:47.362Z,100553.80
2023-04-10T11:26:50.879Z,100555.37
2023-04-10T11:27:54.676Z,100563.29
2023-04-10T11:28:59.683Z,100560.61
2023-04-10T11:30:06.033Z,100562.44
2023-04-10T11:31:22.218Z,100558.05
2023-04-10T11:34:28.568Z,100542.62
2023-04-10T11:35:31.606Z,100545.77
2023-04-10T11:36:39.469Z,100541.72
2023-04-10T11:37:41.697Z,100535.40
2023-04-10T11:40:14.892Z,100533.09
2023-04-10T11:41:19.653Z,100535.14
2023-04-10T11:42:23.356Z,100532.17
2023-04-10T11:43:28.904Z,100537.14
2023-04-10T11:44:34.093Z,100535.17
2023-04-10T11:45:36.232Z,100530.41
2023-04-10T11:46:45.104Z,100523.94
2023-04-10T11:49:07.096Z,100523.58
2023-04-10T11:50:10.661Z,100533.38
2023-04-10T11:51:15.095Z,100527.77
2023-04-10T11:52:24.796Z,100541.75
2023-04-10T11:53:28.388Z,100519.34
2023-04-10T11:54:34.527Z,100528.94
2023-04-10T11:55:38.546Z,100518.08
2023-04-10T11:56:42.793Z,100506.51
2023-04-10T11:57:55.253Z,100517.96
2023-04-10T11:58:59.298Z,100514.28
2023-04-10T12:00:05.970Z,100510.63
2023-04-10T12:02:27.966Z,100496.86
2023-04-10T12:03:39.557Z,100519.38
2023-04-10T12:04:44.468Z,100510.21
2023-04-10T12:05:48.873Z,100511.77
2023-04-10T12:06:57.313Z,100506.14
2023-04-10T12:07:59.405Z,100499.81
2023-04-10T12:09:05.900Z,100499.93
2023-04-10T12:10:09.902Z,100499.08
2023-04-10T12:11:15.344Z,100502.76
2023-04-10T12:12:19.969Z,100496.70
2023-04-10T12:13:29.575Z,100488.92
2023-04-10T12:14:37.484Z,100494.28
2023-04-10T12:15:39.798Z,100498.09
2023-04-10T12:16:47.125Z,100487.64
2023-04-10T12:17:55.945Z,100490.58
2023-04-10T12:18:58.512Z,100482.66
2023-04-10T12:20:02.873Z,100488.88
2023-04-10T12:21:11.637Z,100486.34
2023-04-10T12:22:15.437Z,100491.82
2023-04-10T12:23:20.321Z,100494.65
2023-04-10T12:24:49.942Z,100485.91
2023-04-10T12:26:15.033Z,100488.70
2023-04-10T12:27:29.641Z,100501.13
2023-04-10T12:28:37.164Z,100492.38
2023-04-10T12:29:39.466Z,100496.62
2023-04-10T12:30:49.959Z,100488.70
2023-04-10T12:31:54.331Z,100477.87
2023-04-10T12:32:56.520Z,100486.61
2023-04-10T12:34:00.833Z,100486.61
2023-04-10T12:35:04.650Z,100480.13
2023-04-10T12:37:50.871Z,100475.97
2023-04-10T12:38:57.520Z,100470.98
2023-04-10T12:40:09.543Z,100468.88
2023-04-10T12:41:13.442Z,100466.05
2023-04-10T12:42:22.879Z,100473.83
2023-04-10T12:45:03.164Z,100461.60
2023-04-10T12:46:08.665Z,100479.77
2023-04-10T12:47:14.040Z,100475.97
2023-04-10T12:48:24.172Z,100465.25
2023-04-10T12:49:26.325Z,100470.72
2023-04-10T12:50:29.530Z,100466.37
2023-04-10T12:51:46.689Z,100466.48
2023-04-10T12:53:06.427Z,100464.81
2023-04-10T12:55:27.876Z,100468.36
2023-04-10T12:56:42.795Z,100468.14
2023-04-10T12:57:51.217Z,100468.45
2023-04-10T12:58:57.032Z,100471.39
2023-04-10T13:01:23.667Z,100464.37
2023-04-10T13:02:29.746Z,100453.17
2023-04-10T13:03:40.192Z,100455.86
2023-04-10T13:04:45.793Z,100454.03
2023-04-10T13:05:50.847Z,100454.15
2023-04-10T13:06:56.544Z,100454.15
2023-04-10T13:08:04.518Z,100461.21
2023-04-10T13:09:08.130Z,100448.67
2023-04-10T13:10:10.884Z,100453.88
2023-04-10T13:11:13.766Z,100456.56
2023-04-10T13:12:15.872Z,100458.27
2023-04-10T13:13:23.792Z,100454.59
2023-04-10T13:14:28.219Z,100449.23
2023-04-10T13:15:33.024Z,100458.86
2023-04-10T13:16:35.445Z,100445.31
2023-04-10T13:17:38.572Z,100470.00
2023-04-10T13:18:44.608Z,100454.63
2023-04-10T13:19:49.893Z,100464.37
2023-04-10T13:20:52.777Z,100461.70
2023-04-10T13:22:03.534Z,100455.61
2023-04-10T13:23:12.653Z,100453.08
2023-04-10T13:24:20.069Z,100453.93
2023-04-10T13:25:25.876Z,100453.93
2023-04-10T13:26:33.648Z,100449.70
2023-04-10T13:27:36.368Z,100455.17
2023-04-10T13:28:41.940Z,100457.85
2023-04-10T13:29:45.824Z,100452.64
2023-04-10T13:32:05.413Z,100458.72
2023-04-10T13:33:09.033Z,100452.05
2023-04-10T13:34:13.166Z,100456.17
2023-04-10T13:35:20.847Z,100456.02
2023-04-10T13:36:24.389Z,100449.70
2023-04-10T13:37:27.647Z,100444.19
2023-04-10T13:38:31.151Z,100441.23
2023-04-10T13:39:34.658Z,100446.17
2023-04-10T13:40:37.204Z,100439.69
2023-04-10T13:41:41.556Z,100447.19
2023-04-10T13:42:48.522Z,100440.70
2023-04-10T13:43:55.747Z,100444.67
2023-04-10T13:45:01.299Z,100438.19
2023-04-10T13:46:14.276Z,100438.77
2023-04-10T13:47:19.096Z,100447.23
2023-04-10T13:48:37.522Z,100440.63
2023-04-10T13:49:34.388Z,100445.55
2023-04-10T13:50:36.752Z,100438.21
2023-04-10T13:51:41.183Z,100433.42